sensor_id;sensor_type;location;lat;lon;timestamp;temperature;humidity
5743;DHT22;2896;53.500;10.020;2023-04-07T00:01:50;4.80;99.90
5743;DHT22;2896;53.500;10.020;2023-04-07T00:04:17;4.60;99.90
5743;DHT22;2896;53.500;10.020;2023-04-07T00:06:45;4.60;99.90
5743;DHT22;2896;53.500;10.020;2023-04-07T00:09:12;4.70;99.90
5743;DHT22;2896;53.500;10.020;2023-04-07T00:11:38;4.60;99.90
5743;DHT22;2896;53.500;10.020;2023-04-07T00:14:05;4.40;99.90
5743;DHT22;2896;53.500;10.020;2023-04-07T00:16:31;4.40;99.90
5743;DHT22;2896;53.500;10.020;2023-04-07T00:18:58;4.20;99.90
5743;DHT22;2896;53.500;10.020;2023-04-07T00:21:25;4.20;99.90
5743;DHT22;2896;53.500;10.020;2023-04-07T00:23:53;4.10;99.90
5743;DHT22;2896;53.500;10.020;2023-04-07T00:26:21;4.30;99.90
5743;DHT22;2896;53.500;10.020;2023-04-07T00:28:48;4.30;99.90
5743;DHT22;2896;53.500;10.020;2023-04-07T00:31:14;4.30;99.90
5743;DHT22;2896;53.500;10.020;2023-04-07T00:33:41;4.20;99.90
5743;DHT22;2896;53.500;10.020;2023-04-07T00:36:08;4.10;99.90
5743;DHT22;2896;53.500;10.020;2023-04-07T00:38:34;4.20;99.90
5743;DHT22;2896;53.500;10.020;2023-04-07T00:41:02;4.20;99.90
5743;DHT22;2896;53.500;10.020;2023-04-07T00:43:29;4.20;99.90
5743;DHT22;2896;53.500;10.020;2023-04-07T00:45:55;4.30;99.90
5743;DHT22;2896;53.500;10.020;2023-04-07T00:48:22;4.30;99.90
5743;DHT22;2896;53.500;10.020;2023-04-07T00:50:49;4.30;99.90
5743;DHT22;2896;53.500;10.020;2023-04-07T00:53:16;4.20;99.90
5743;DHT22;2896;53.500;10.020;2023-04-07T00:55:43;4.20;99.90
5743;DHT22;2896;53.500;10.020;2023-04-07T00:58:11;4.30;99.90
5743;DHT22;2896;53.500;10.020;2023-04-07T01:00:41;4.40;99.90
5743;DHT22;2896;53.500;10.020;2023-04-07T01:03:17;4.30;99.90
5743;DHT22;2896;53.500;10.020;2023-04-07T01:05:49;4.20;99.90
5743;DHT22;2896;53.500;10.020;2023-04-07T01:08:23;4.00;99.90
5743;DHT22;2896;53.500;10.020;2023-04-07T01:10:54;4.00;99.90
5743;DHT22;2896;53.500;10.020;2023-04-07T01:13:27;3.90;99.90
5743;DHT22;2896;53.500;10.020;2023-04-07T01:15:58;3.90;99.90
5743;DHT22;2896;53.500;10.020;2023-04-07T01:18:30;3.80;99.90
5743;DHT22;2896;53.500;10.020;2023-04-07T01:21:02;3.90;99.90
5743;DHT22;2896;53.500;10.020;2023-04-07T01:23:38;3.90;99.90
5743;DHT22;2896;53.500;10.020;2023-04-07T01:26:17;4.30;99.90
5743;DHT22;2896;53.500;10.020;2023-04-07T01:28:57;3.90;99.90
5743;DHT22;2896;53.500;10.020;2023-04-07T01:31:27;3.90;99.90
5743;DHT22;2896;53.500;10.020;2023-04-07T01:33:58;3.80;99.90
5743;DHT22;2896;53.500;10.020;2023-04-07T01:36:25;3.70;99.90
5743;DHT22;2896;53.500;10.020;2023-04-07T01:38:53;3.70;99.90
5743;DHT22;2896;53.500;10.020;2023-04-07T01:41:21;3.70;99.90
5743;DHT22;2896;53.500;10.020;2023-04-07T01:43:49;3.60;99.90
5743;DHT22;2896;53.500;10.020;2023-04-07T01:46:16;3.60;99.90
5743;DHT22;2896;53.500;10.020;2023-04-07T01:48:46;3.50;99.90
5743;DHT22;2896;53.500;10.020;2023-04-07T01:51:13;3.40;99.90
5743;DHT22;2896;53.500;10.020;2023-04-07T01:53:43;3.30;99.90
5743;DHT22;2896;53.500;10.020;2023-04-07T01:56:10;3.40;99.90
5743;DHT22;2896;53.500;10.020;2023-04-07T01:58:37;3.20;99.90
5743;DHT22;2896;53.500;10.020;2023-04-07T02:01:04;3.20;99.90
5743;DHT22;2896;53.500;10.020;2023-04-07T02:03:35;3.30;99.90
5743;DHT22;2896;53.500;10.020;2023-04-07T02:06:07;3.30;99.90
5743;DHT22;2896;53.500;10.020;2023-04-07T02:08:35;3.20;99.90
5743;DHT22;2896;53.500;10.020;2023-04-07T02:11:04;3.20;99.90
5743;DHT22;2896;53.500;10.020;2023-04-07T02:13:33;3.20;99.90
5743;DHT22;2896;53.500;10.020;2023-04-07T02:16:00;3.20;99.90
5743;DHT22;2896;53.500;10.020;2023-04-07T02:18:29;3.20;99.90
5743;DHT22;2896;53.500;10.020;2023-04-07T02:20:57;3.20;99.90
5743;DHT22;2896;53.500;10.020;2023-04-07T02:23:26;3.10;99.90
5743;DHT22;2896;53.500;10.020;2023-04-07T02:25:55;2.90;99.90
5743;DHT22;2896;53.500;10.020;2023-04-07T02:28:22;3.00;99.90
5743;DHT22;2896;53.500;10.020;2023-04-07T02:30:48;3.00;99.90
5743;DHT22;2896;53.500;10.020;2023-04-07T02:33:15;3.10;99.90
5743;DHT22;2896;53.500;10.020;2023-04-07T02:35:41;3.00;99.90
5743;DHT22;2896;53.500;10.020;2023-04-07T02:38:08;3.00;99.90
5743;DHT22;2896;53.500;10.020;2023-04-07T02:40:37;2.90;99.90
5743;DHT22;2896;53.500;10.020;2023-04-07T02:43:04;2.90;99.90
5743;DHT22;2896;53.500;10.020;2023-04-07T02:45:31;2.80;99.90
5743;DHT22;2896;53.500;10.020;2023-04-07T02:47:58;2.70;99.90
5743;DHT22;2896;53.500;10.020;2023-04-07T02:50:24;2.60;99.90
5743;DHT22;2896;53.500;10.020;2023-04-07T02:52:51;2.60;99.90
5743;DHT22;2896;53.500;10.020;2023-04-07T02:55:18;2.60;99.90
5743;DHT22;2896;53.500;10.020;2023-04-07T02:57:46;2.60;99.90
5743;DHT22;2896;53.500;10.020;2023-04-07T03:00:14;2.40;99.90
5743;DHT22;2896;53.500;10.020;2023-04-07T03:02:41;2.20;99.90
5743;DHT22;2896;53.500;10.020;2023-04-07T03:05:08;2.20;99.90
5743;DHT22;2896;53.500;10.020;2023-04-07T03:07:35;2.20;99.90
5743;DHT22;2896;53.500;10.020;2023-04-07T03:10:01;2.20;99.90
5743;DHT22;2896;53.500;10.020;2023-04-07T03:12:28;2.20;99.90
5743;DHT22;2896;53.500;10.020;2023-04-07T03:14:56;2.20;99.90
5743;DHT22;2896;53.500;10.020;2023-04-07T03:17:22;2.20;99.90
5743;DHT22;2896;53.500;10.020;2023-04-07T03:19:49;2.10;99.90
5743;DHT22;2896;53.500;10.020;2023-04-07T03:22:16;2.10;99.90
5743;DHT22;2896;53.500;10.020;2023-04-07T03:24:43;1.90;99.90
5743;DHT22;2896;53.500;10.020;2023-04-07T03:27:10;1.80;99.90
5743;DHT22;2896;53.500;10.020;2023-04-07T03:29:36;1.80;99.90
5743;DHT22;2896;53.500;10.020;2023-04-07T03:32:04;1.90;99.90
5743;DHT22;2896;53.500;10.020;2023-04-07T03:34:31;1.80;99.90
5743;DHT22;2896;53.500;10.020;2023-04-07T03:36:57;2.00;99.90
5743;DHT22;2896;53.500;10.020;2023-04-07T03:39:24;2.00;99.90
5743;DHT22;2896;53.500;10.020;2023-04-07T03:41:51;1.90;99.90
5743;DHT22;2896;53.500;10.020;2023-04-07T03:44:17;2.00;99.90
5743;DHT22;2896;53.500;10.020;2023-04-07T03:46:44;2.00;99.90
5743;DHT22;2896;53.500;10.020;2023-04-07T03:49:13;2.00;99.90
5743;DHT22;2896;53.500;10.020;2023-04-07T03:51:40;2.20;99.90
5743;DHT22;2896;53.500;10.020;2023-04-07T03:54:07;2.00;99.90
5743;DHT22;2896;53.500;10.020;2023-04-07T03:56:34;2.00;99.90
5743;DHT22;2896;53.500;10.020;2023-04-07T03:59:01;2.00;99.90
5743;DHT22;2896;53.500;10.020;2023-04-07T04:01:28;1.80;99.90
5743;DHT22;2896;53.500;10.020;2023-04-07T04:03:55;1.80;99.90
5743;DHT22;2896;53.500;10.020;2023-04-07T04:06:23;1.80;99.90
5743;DHT22;2896;53.500;10.020;2023-04-07T04:08:50;2.00;99.90
5743;DHT22;2896;53.500;10.020;2023-04-07T04:11:17;1.80;99.90
5743;DHT22;2896;53.500;10.020;2023-04-07T04:13:44;1.80;99.90
5743;DHT22;2896;53.500;10.020;2023-04-07T04:16:11;2.10;99.90
5743;DHT22;2896;53.500;10.020;2023-04-07T04:18:37;2.00;99.90
5743;DHT22;2896;53.500;10.020;2023-04-07T04:21:05;2.10;99.90
5743;DHT22;2896;53.500;10.020;2023-04-07T04:23:33;2.00;99.90
5743;DHT22;2896;53.500;10.020;2023-04-07T04:26:00;2.10;99.90
5743;DHT22;2896;53.500;10.020;2023-04-07T04:28:28;2.20;99.90
5743;DHT22;2896;53.500;10.020;2023-04-07T04:30:54;2.10;99.90
5743;DHT22;2896;53.500;10.020;2023-04-07T04:33:21;2.20;99.90
5743;DHT22;2896;53.500;10.020;2023-04-07T04:35:48;2.20;99.90
5743;DHT22;2896;53.500;10.020;2023-04-07T04:38:15;2.20;99.90
5743;DHT22;2896;53.500;10.020;2023-04-07T04:40:42;2.30;99.90
5743;DHT22;2896;53.500;10.020;2023-04-07T04:43:09;2.30;99.90
5743;DHT22;2896;53.500;10.020;2023-04-07T04:45:36;2.20;99.90
5743;DHT22;2896;53.500;10.020;2023-04-07T04:48:03;2.30;99.90
5743;DHT22;2896;53.500;10.020;2023-04-07T04:50:29;2.20;99.90
5743;DHT22;2896;53.500;10.020;2023-04-07T04:52:56;2.00;99.90
5743;DHT22;2896;53.500;10.020;2023-04-07T04:55:23;1.90;99.90
5743;DHT22;2896;53.500;10.020;2023-04-07T04:57:50;1.70;99.90
5743;DHT22;2896;53.500;10.020;2023-04-07T05:00:18;1.60;99.90
5743;DHT22;2896;53.500;10.020;2023-04-07T05:02:44;1.50;99.90
5743;DHT22;2896;53.500;10.020;2023-04-07T05:05:12;1.50;99.90
5743;DHT22;2896;53.500;10.020;2023-04-07T05:07:39;1.50;99.90
5743;DHT22;2896;53.500;10.020;2023-04-07T05:10:07;1.70;99.90
5743;DHT22;2896;53.500;10.020;2023-04-07T05:12:34;1.80;99.90
5743;DHT22;2896;53.500;10.020;2023-04-07T05:15:02;1.80;99.90
5743;DHT22;2896;53.500;10.020;2023-04-07T05:17:29;2.10;99.90
5743;DHT22;2896;53.500;10.020;2023-04-07T05:19:56;2.30;99.90
5743;DHT22;2896;53.500;10.020;2023-04-07T05:22:22;2.40;99.90
5743;DHT22;2896;53.500;10.020;2023-04-07T05:24:49;2.30;99.90
5743;DHT22;2896;53.500;10.020;2023-04-07T05:27:16;2.40;99.90
5743;DHT22;2896;53.500;10.020;2023-04-07T05:29:42;2.40;99.90
5743;DHT22;2896;53.500;10.020;2023-04-07T05:32:10;2.30;99.90
5743;DHT22;2896;53.500;10.020;2023-04-07T05:34:37;2.30;99.90
5743;DHT22;2896;53.500;10.020;2023-04-07T05:37:04;2.50;99.90
5743;DHT22;2896;53.500;10.020;2023-04-07T05:39:31;2.60;99.90
5743;DHT22;2896;53.500;10.020;2023-04-07T05:41:57;2.60;99.90
5743;DHT22;2896;53.500;10.020;2023-04-07T05:44:24;2.10;99.90
5743;DHT22;2896;53.500;10.020;2023-04-07T05:46:50;2.70;99.90
5743;DHT22;2896;53.500;10.020;2023-04-07T05:49:18;2.80;99.90
5743;DHT22;2896;53.500;10.020;2023-04-07T05:51:45;2.80;99.90
5743;DHT22;2896;53.500;10.020;2023-04-07T05:54:12;2.90;99.90
5743;DHT22;2896;53.500;10.020;2023-04-07T05:56:38;3.10;99.90
5743;DHT22;2896;53.500;10.020;2023-04-07T05:59:05;3.20;99.90
5743;DHT22;2896;53.500;10.020;2023-04-07T06:01:32;3.60;99.90
5743;DHT22;2896;53.500;10.020;2023-04-07T06:03:58;4.10;99.90
5743;DHT22;2896;53.500;10.020;2023-04-07T06:06:27;5.00;99.90
5743;DHT22;2896;53.500;10.020;2023-04-07T06:08:54;5.90;99.90
5743;DHT22;2896;53.500;10.020;2023-04-07T06:11:21;6.50;99.90
5743;DHT22;2896;53.500;10.020;2023-04-07T06:13:47;6.90;99.90
5743;DHT22;2896;53.500;10.020;2023-04-07T06:16:14;7.40;99.90
5743;DHT22;2896;53.500;10.020;2023-04-07T06:18:40;7.60;99.90
5743;DHT22;2896;53.500;10.020;2023-04-07T06:21:07;7.70;99.90
5743;DHT22;2896;53.500;10.020;2023-04-07T06:23:35;7.40;99.90
5743;DHT22;2896;53.500;10.020;2023-04-07T06:26:02;7.70;99.90
5743;DHT22;2896;53.500;10.020;2023-04-07T06:28:28;7.70;99.90
5743;DHT22;2896;53.500;10.020;2023-04-07T06:30:55;7.60;99.90
5743;DHT22;2896;53.500;10.020;2023-04-07T06:33:22;7.70;99.90
5743;DHT22;2896;53.500;10.020;2023-04-07T06:35:50;8.00;99.90
5743;DHT22;2896;53.500;10.020;2023-04-07T06:38:18;8.00;99.90
5743;DHT22;2896;53.500;10.020;2023-04-07T06:40:46;8.80;99.90
5743;DHT22;2896;53.500;10.020;2023-04-07T06:43:13;8.20;99.90
5743;DHT22;2896;53.500;10.020;2023-04-07T06:45:40;8.60;99.90
5743;DHT22;2896;53.500;10.020;2023-04-07T06:48:06;8.40;99.90
5743;DHT22;2896;53.500;10.020;2023-04-07T06:50:35;8.20;99.90
5743;DHT22;2896;53.500;10.020;2023-04-07T06:53:01;8.40;99.90
5743;DHT22;2896;53.500;10.020;2023-04-07T06:55:28;8.00;99.90
5743;DHT22;2896;53.500;10.020;2023-04-07T06:57:57;8.10;99.90
5743;DHT22;2896;53.500;10.020;2023-04-07T07:00:23;8.00;99.90
5743;DHT22;2896;53.500;10.020;2023-04-07T07:02:53;8.10;99.90
5743;DHT22;2896;53.500;10.020;2023-04-07T07:05:20;8.10;99.90
5743;DHT22;2896;53.500;10.020;2023-04-07T07:07:47;7.80;99.90
5743;DHT22;2896;53.500;10.020;2023-04-07T07:10:14;7.90;99.90
5743;DHT22;2896;53.500;10.020;2023-04-07T07:12:41;7.90;99.90
5743;DHT22;2896;53.500;10.020;2023-04-07T07:15:09;8.20;99.90
5743;DHT22;2896;53.500;10.020;2023-04-07T07:17:36;8.40;99.90
5743;DHT22;2896;53.500;10.020;2023-04-07T07:20:03;8.50;99.90
5743;DHT22;2896;53.500;10.020;2023-04-07T07:22:30;8.50;99.90
5743;DHT22;2896;53.500;10.020;2023-04-07T07:24:57;8.60;99.90
5743;DHT22;2896;53.500;10.020;2023-04-07T07:27:23;8.80;99.90
5743;DHT22;2896;53.500;10.020;2023-04-07T07:29:50;9.10;99.90
5743;DHT22;2896;53.500;10.020;2023-04-07T07:32:18;9.20;99.90
5743;DHT22;2896;53.500;10.020;2023-04-07T07:34:45;9.00;99.90
5743;DHT22;2896;53.500;10.020;2023-04-07T07:37:11;9.10;99.90
5743;DHT22;2896;53.500;10.020;2023-04-07T07:39:38;9.30;99.90
5743;DHT22;2896;53.500;10.020;2023-04-07T07:42:05;9.10;99.90
5743;DHT22;2896;53.500;10.020;2023-04-07T07:44:31;9.40;99.90
5743;DHT22;2896;53.500;10.020;2023-04-07T07:46:58;9.50;99.90
5743;DHT22;2896;53.500;10.020;2023-04-07T07:49:26;9.60;99.90
5743;DHT22;2896;53.500;10.020;2023-04-07T07:51:53;9.90;99.90
5743;DHT22;2896;53.500;10.020;2023-04-07T07:54:19;10.10;99.90
5743;DHT22;2896;53.500;10.020;2023-04-07T07:56:46;10.10;99.90
5743;DHT22;2896;53.500;10.020;2023-04-07T07:59:12;10.30;99.90
5743;DHT22;2896;53.500;10.020;2023-04-07T08:01:39;10.20;99.90
5743;DHT22;2896;53.500;10.020;2023-04-07T08:04:06;10.30;99.90
5743;DHT22;2896;53.500;10.020;2023-04-07T08:06:34;10.50;99.90
5743;DHT22;2896;53.500;10.020;2023-04-07T08:09:02;10.60;99.90
5743;DHT22;2896;53.500;10.020;2023-04-07T08:11:28;10.90;99.90
5743;DHT22;2896;53.500;10.020;2023-04-07T08:13:55;10.30;99.90
5743;DHT22;2896;53.500;10.020;2023-04-07T08:16:22;10.50;99.90
5743;DHT22;2896;53.500;10.020;2023-04-07T08:18:48;10.80;99.90
5743;DHT22;2896;53.500;10.020;2023-04-07T08:21:16;10.90;99.90
5743;DHT22;2896;53.500;10.020;2023-04-07T08:23:44;10.70;99.90
5743;DHT22;2896;53.500;10.020;2023-04-07T08:26:11;10.60;99.90
5743;DHT22;2896;53.500;10.020;2023-04-07T08:28:37;10.80;99.90
5743;DHT22;2896;53.500;10.020;2023-04-07T08:31:04;10.90;99.90
5743;DHT22;2896;53.500;10.020;2023-04-07T08:33:31;11.30;99.90
5743;DHT22;2896;53.500;10.020;2023-04-07T08:35:58;11.50;99.90
5743;DHT22;2896;53.500;10.020;2023-04-07T08:38:25;11.50;99.90
5743;DHT22;2896;53.500;10.020;2023-04-07T08:40:59;11.50;99.90
5743;DHT22;2896;53.500;10.020;2023-04-07T08:43:28;11.40;99.90
5743;DHT22;2896;53.500;10.020;2023-04-07T08:45:56;11.30;99.90
5743;DHT22;2896;53.500;10.020;2023-04-07T08:48:23;11.20;99.90
5743;DHT22;2896;53.500;10.020;2023-04-07T08:50:52;11.20;99.90
5743;DHT22;2896;53.500;10.020;2023-04-07T08:53:23;11.20;99.90
5743;DHT22;2896;53.500;10.020;2023-04-07T08:55:54;11.20;99.90
5743;DHT22;2896;53.500;10.020;2023-04-07T08:58:21;11.30;99.90
5743;DHT22;2896;53.500;10.020;2023-04-07T09:00:48;11.40;99.90
5743;DHT22;2896;53.500;10.020;2023-04-07T09:03:15;11.50;99.90
5743;DHT22;2896;53.500;10.020;2023-04-07T09:05:43;11.50;99.90
5743;DHT22;2896;53.500;10.020;2023-04-07T09:08:10;11.40;99.90
5743;DHT22;2896;53.500;10.020;2023-04-07T09:10:37;13.20;99.90
5743;DHT22;2896;53.500;10.020;2023-04-07T09:13:05;12.00;99.90
5743;DHT22;2896;53.500;10.020;2023-04-07T09:15:32;11.80;99.90
5743;DHT22;2896;53.500;10.020;2023-04-07T09:17:59;12.00;99.90
5743;DHT22;2896;53.500;10.020;2023-04-07T09:20:25;12.20;99.90
5743;DHT22;2896;53.500;10.020;2023-04-07T09:22:52;12.20;99.90
5743;DHT22;2896;53.500;10.020;2023-04-07T09:25:20;12.30;99.90
5743;DHT22;2896;53.500;10.020;2023-04-07T09:27:56;12.00;99.90
5743;DHT22;2896;53.500;10.020;2023-04-07T09:30:24;11.90;99.90
5743;DHT22;2896;53.500;10.020;2023-04-07T09:32:51;11.50;99.90
5743;DHT22;2896;53.500;10.020;2023-04-07T09:35:17;11.80;99.90
5743;DHT22;2896;53.500;10.020;2023-04-07T09:38:00;12.00;99.90
5743;DHT22;2896;53.500;10.020;2023-04-07T09:40:27;12.20;99.90
5743;DHT22;2896;53.500;10.020;2023-04-07T09:42:54;12.40;99.90
5743;DHT22;2896;53.500;10.020;2023-04-07T09:45:24;12.50;99.90
5743;DHT22;2896;53.500;10.020;2023-04-07T09:47:52;12.50;99.90
5743;DHT22;2896;53.500;10.020;2023-04-07T09:50:30;12.10;99.90
5743;DHT22;2896;53.500;10.020;2023-04-07T09:52:58;12.40;99.90
5743;DHT22;2896;53.500;10.020;2023-04-07T09:55:26;12.40;99.90
5743;DHT22;2896;53.500;10.020;2023-04-07T09:57:54;12.30;99.90
5743;DHT22;2896;53.500;10.020;2023-04-07T10:00:21;11.00;99.90
5743;DHT22;2896;53.500;10.020;2023-04-07T10:02:49;12.40;99.90
5743;DHT22;2896;53.500;10.020;2023-04-07T10:05:17;12.90;99.90
5743;DHT22;2896;53.500;10.020;2023-04-07T10:07:46;13.00;99.90
5743;DHT22;2896;53.500;10.020;2023-04-07T10:10:13;12.90;99.90
5743;DHT22;2896;53.500;10.020;2023-04-07T10:12:40;13.10;99.90
5743;DHT22;2896;53.500;10.020;2023-04-07T10:15:08;13.00;99.90
5743;DHT22;2896;53.500;10.020;2023-04-07T10:17:38;13.00;99.90
5743;DHT22;2896;53.500;10.020;2023-04-07T10:20:09;13.10;99.90
5743;DHT22;2896;53.500;10.020;2023-04-07T10:22:37;13.20;99.90
5743;DHT22;2896;53.500;10.020;2023-04-07T10:25:08;13.20;99.90
5743;DHT22;2896;53.500;10.020;2023-04-07T10:27:39;13.20;99.90
5743;DHT22;2896;53.500;10.020;2023-04-07T10:30:13;13.30;99.90
5743;DHT22;2896;53.500;10.020;2023-04-07T10:32:45;12.90;99.90
5743;DHT22;2896;53.500;10.020;2023-04-07T10:35:14;13.00;99.90
5743;DHT22;2896;53.500;10.020;2023-04-07T10:38:11;13.20;99.90
5743;DHT22;2896;53.500;10.020;2023-04-07T10:40:40;13.50;99.90
5743;DHT22;2896;53.500;10.020;2023-04-07T10:43:07;13.70;99.90
5743;DHT22;2896;53.500;10.020;2023-04-07T10:45:52;14.80;99.90
5743;DHT22;2896;53.500;10.020;2023-04-07T10:48:20;14.40;99.90
5743;DHT22;2896;53.500;10.020;2023-04-07T10:51:14;14.60;99.90
5743;DHT22;2896;53.500;10.020;2023-04-07T10:57:07;14.50;99.90
5743;DHT22;2896;53.500;10.020;2023-04-07T10:59:35;14.70;99.90
5743;DHT22;2896;53.500;10.020;2023-04-07T11:02:31;14.50;99.90
5743;DHT22;2896;53.500;10.020;2023-04-07T11:04:58;14.90;99.90
5743;DHT22;2896;53.500;10.020;2023-04-07T11:07:47;15.10;99.90
5743;DHT22;2896;53.500;10.020;2023-04-07T11:10:15;15.40;99.90
5743;DHT22;2896;53.500;10.020;2023-04-07T11:12:44;15.40;99.90
5743;DHT22;2896;53.500;10.020;2023-04-07T11:15:22;14.50;99.90
5743;DHT22;2896;53.500;10.020;2023-04-07T11:18:05;14.00;99.90
5743;DHT22;2896;53.500;10.020;2023-04-07T11:20:40;13.70;99.90
5743;DHT22;2896;53.500;10.020;2023-04-07T11:23:09;14.50;99.90
5743;DHT22;2896;53.500;10.020;2023-04-07T11:25:37;13.70;99.90
5743;DHT22;2896;53.500;10.020;2023-04-07T11:28:04;13.80;99.90
5743;DHT22;2896;53.500;10.020;2023-04-07T11:30:31;14.30;99.90
5743;DHT22;2896;53.500;10.020;2023-04-07T11:32:58;15.00;99.90
5743;DHT22;2896;53.500;10.020;2023-04-07T11:35:25;15.30;99.90
5743;DHT22;2896;53.500;10.020;2023-04-07T11:37:56;14.60;99.90
5743;DHT22;2896;53.500;10.020;2023-04-07T11:40:33;14.40;99.90
5743;DHT22;2896;53.500;10.020;2023-04-07T11:43:01;13.60;99.90
5743;DHT22;2896;53.500;10.020;2023-04-07T11:45:28;13.30;99.90
5743;DHT22;2896;53.500;10.020;2023-04-07T11:47:55;14.00;99.90
5743;DHT22;2896;53.500;10.020;2023-04-07T11:50:38;14.60;99.90
5743;DHT22;2896;53.500;10.020;2023-04-07T11:53:05;14.90;99.90
5743;DHT22;2896;53.500;10.020;2023-04-07T11:55:33;14.70;99.90
5743;DHT22;2896;53.500;10.020;2023-04-07T11:58:05;14.30;99.90
5743;DHT22;2896;53.500;10.020;2023-04-07T12:00:34;14.70;99.90
5743;DHT22;2896;53.500;10.020;2023-04-07T12:03:08;15.20;99.90
5743;DHT22;2896;53.500;10.020;2023-04-07T12:05:44;15.20;99.90
5743;DHT22;2896;53.500;10.020;2023-04-07T12:08:11;14.40;99.90
5743;DHT22;2896;53.500;10.020;2023-04-07T12:10:39;14.90;99.90
5743;DHT22;2896;53.500;10.020;2023-04-07T12:13:07;14.80;99.90
5743;DHT22;2896;53.500;10.020;2023-04-07T12:15:34;14.80;99.90
5743;DHT22;2896;53.500;10.020;2023-04-07T12:18:01;15.40;99.90
5743;DHT22;2896;53.500;10.020;2023-04-07T12:20:28;15.00;99.90
5743;DHT22;2896;53.500;10.020;2023-04-07T12:22:54;14.30;99.90
5743;DHT22;2896;53.500;10.020;2023-04-07T12:25:21;14.90;99.90
5743;DHT22;2896;53.500;10.020;2023-04-07T12:27:49;15.20;99.90
5743;DHT22;2896;53.500;10.020;2023-04-07T12:30:16;15.30;99.90
5743;DHT22;2896;53.500;10.020;2023-04-07T12:32:43;15.00;99.90
5743;DHT22;2896;53.500;10.020;2023-04-07T12:35:09;14.90;99.90
5743;DHT22;2896;53.500;10.020;2023-04-07T12:37:36;15.30;99.90
5743;DHT22;2896;53.500;10.020;2023-04-07T12:40:03;15.60;99.90
5743;DHT22;2896;53.500;10.020;2023-04-07T12:42:30;14.70;99.90
5743;DHT22;2896;53.500;10.020;2023-04-07T12:44:57;15.10;99.90
5743;DHT22;2896;53.500;10.020;2023-04-07T12:47:24;15.70;99.90
5743;DHT22;2896;53.500;10.020;2023-04-07T12:49:51;14.90;99.90
5743;DHT22;2896;53.500;10.020;2023-04-07T12:52:18;14.20;99.90
5743;DHT22;2896;53.500;10.020;2023-04-07T12:54:44;14.20;99.90
5743;DHT22;2896;53.500;10.020;2023-04-07T12:57:11;15.50;99.90
5743;DHT22;2896;53.500;10.020;2023-04-07T12:59:38;15.80;99.90
5743;DHT22;2896;53.500;10.020;2023-04-07T13:02:07;15.40;99.90
5743;DHT22;2896;53.500;10.020;2023-04-07T13:04:33;14.60;99.90
5743;DHT22;2896;53.500;10.020;2023-04-07T13:07:01;15.40;99.90
5743;DHT22;2896;53.500;10.020;2023-04-07T13:09:27;14.70;99.90
5743;DHT22;2896;53.500;10.020;2023-04-07T13:11:54;15.20;99.90
5743;DHT22;2896;53.500;10.020;2023-04-07T13:14:22;15.90;99.90
5743;DHT22;2896;53.500;10.020;2023-04-07T13:16:48;15.90;99.90
5743;DHT22;2896;53.500;10.020;2023-04-07T13:19:16;15.20;99.90
5743;DHT22;2896;53.500;10.020;2023-04-07T13:21:43;14.60;99.90
5743;DHT22;2896;53.500;10.020;2023-04-07T13:24:10;14.80;99.90
5743;DHT22;2896;53.500;10.020;2023-04-07T13:26:37;15.20;99.90
5743;DHT22;2896;53.500;10.020;2023-04-07T13:29:03;14.50;99.90
5743;DHT22;2896;53.500;10.020;2023-04-07T13:31:30;14.60;99.90
5743;DHT22;2896;53.500;10.020;2023-04-07T13:33:57;14.80;99.90
5743;DHT22;2896;53.500;10.020;2023-04-07T13:36:25;15.20;99.90
5743;DHT22;2896;53.500;10.020;2023-04-07T13:38:52;15.40;99.90
5743;DHT22;2896;53.500;10.020;2023-04-07T13:41:19;15.40;99.90
5743;DHT22;2896;53.500;10.020;2023-04-07T13:43:46;15.20;99.90
5743;DHT22;2896;53.500;10.020;2023-04-07T13:46:12;15.60;99.90
5743;DHT22;2896;53.500;10.020;2023-04-07T13:48:40;15.80;99.90
5743;DHT22;2896;53.500;10.020;2023-04-07T13:51:07;15.70;99.90
5743;DHT22;2896;53.500;10.020;2023-04-07T13:53:35;15.80;99.90
5743;DHT22;2896;53.500;10.020;2023-04-07T13:56:01;15.90;99.90
5743;DHT22;2896;53.500;10.020;2023-04-07T13:58:30;15.20;99.90
5743;DHT22;2896;53.500;10.020;2023-04-07T14:00:57;15.20;99.90
5743;DHT22;2896;53.500;10.020;2023-04-07T14:03:23;15.90;99.90
5743;DHT22;2896;53.500;10.020;2023-04-07T14:05:50;15.80;99.90
5743;DHT22;2896;53.500;10.020;2023-04-07T14:08:16;15.60;99.90
5743;DHT22;2896;53.500;10.020;2023-04-07T14:10:44;15.80;99.90
5743;DHT22;2896;53.500;10.020;2023-04-07T14:13:11;15.20;99.90
5743;DHT22;2896;53.500;10.020;2023-04-07T14:15:38;15.40;99.90
5743;DHT22;2896;53.500;10.020;2023-04-07T14:18:04;16.40;99.90
5743;DHT22;2896;53.500;10.020;2023-04-07T14:20:32;15.70;99.90
5743;DHT22;2896;53.500;10.020;2023-04-07T14:22:58;15.70;99.90
5743;DHT22;2896;53.500;10.020;2023-04-07T14:25:26;15.70;99.90
5743;DHT22;2896;53.500;10.020;2023-04-07T14:27:54;15.50;99.90
5743;DHT22;2896;53.500;10.020;2023-04-07T14:30:20;15.80;99.90
5743;DHT22;2896;53.500;10.020;2023-04-07T14:32:47;15.90;99.90
5743;DHT22;2896;53.500;10.020;2023-04-07T14:35:14;15.60;99.90
5743;DHT22;2896;53.500;10.020;2023-04-07T14:37:40;15.70;99.90
5743;DHT22;2896;53.500;10.020;2023-04-07T14:40:08;16.60;99.90
5743;DHT22;2896;53.500;10.020;2023-04-07T14:42:35;16.40;99.90
5743;DHT22;2896;53.500;10.020;2023-04-07T14:45:04;16.20;99.90
5743;DHT22;2896;53.500;10.020;2023-04-07T14:47:31;14.50;99.90
5743;DHT22;2896;53.500;10.020;2023-04-07T14:52:24;13.00;99.90
5743;DHT22;2896;53.500;10.020;2023-04-07T14:54:51;13.30;99.90
5743;DHT22;2896;53.500;10.020;2023-04-07T14:57:18;12.80;99.90
5743;DHT22;2896;53.500;10.020;2023-04-07T14:59:46;12.50;99.90
5743;DHT22;2896;53.500;10.020;2023-04-07T15:02:14;12.10;99.90
5743;DHT22;2896;53.500;10.020;2023-04-07T15:04:41;11.80;99.90
5743;DHT22;2896;53.500;10.020;2023-04-07T15:07:07;11.50;99.90
5743;DHT22;2896;53.500;10.020;2023-04-07T15:09:34;11.60;99.90
5743;DHT22;2896;53.500;10.020;2023-04-07T15:12:01;11.80;99.90
5743;DHT22;2896;53.500;10.020;2023-04-07T15:14:29;11.50;99.90
5743;DHT22;2896;53.500;10.020;2023-04-07T15:16:56;12.00;99.90
5743;DHT22;2896;53.500;10.020;2023-04-07T15:19:24;10.80;99.90
5743;DHT22;2896;53.500;10.020;2023-04-07T15:21:50;10.60;99.90
5743;DHT22;2896;53.500;10.020;2023-04-07T15:24:17;10.60;99.90
5743;DHT22;2896;53.500;10.020;2023-04-07T15:26:45;10.20;99.90
5743;DHT22;2896;53.500;10.020;2023-04-07T15:29:12;10.40;99.90
5743;DHT22;2896;53.500;10.020;2023-04-07T15:31:38;10.50;99.90
5743;DHT22;2896;53.500;10.020;2023-04-07T15:34:05;10.50;99.90
5743;DHT22;2896;53.500;10.020;2023-04-07T15:36:33;10.60;99.90
5743;DHT22;2896;53.500;10.020;2023-04-07T15:39:01;10.40;99.90
5743;DHT22;2896;53.500;10.020;2023-04-07T15:41:29;10.40;99.90
5743;DHT22;2896;53.500;10.020;2023-04-07T15:43:58;10.20;99.90
5743;DHT22;2896;53.500;10.020;2023-04-07T15:46:25;10.20;99.90
5743;DHT22;2896;53.500;10.020;2023-04-07T15:48:51;10.10;99.90
5743;DHT22;2896;53.500;10.020;2023-04-07T15:51:18;9.90;99.90
5743;DHT22;2896;53.500;10.020;2023-04-07T15:53:46;9.90;99.90
5743;DHT22;2896;53.500;10.020;2023-04-07T15:56:13;9.80;99.90
5743;DHT22;2896;53.500;10.020;2023-04-07T15:58:39;9.70;99.90
5743;DHT22;2896;53.500;10.020;2023-04-07T16:01:07;10.00;99.90
5743;DHT22;2896;53.500;10.020;2023-04-07T16:03:33;10.00;99.90
5743;DHT22;2896;53.500;10.020;2023-04-07T16:06:00;10.30;99.90